Time,TemperatureF,DewpointF,PressureIn,WindDirection,WindDirectionDegrees,WindSpeedMPH,WindSpeedGustMPH,Humidity,HourlyPrecipIn,Conditions,Clouds,dailyrainin,SoftwareType,DateUTC
2013-04-02 00:03:00,30.0,14.0,29.86,WNW,300,12.0,21.0,50,-99.99,,,-99.99,,2013-04-02 04:03:00,
2013-04-02 00:13:00,30.0,14.0,29.86,WNW,290,10.0,16.0,50,-99.99,,,-99.99,,2013-04-02 04:13:00,
2013-04-02 00:23:00,30.0,16.0,29.87,WNW,290,8.0,16.0,54,-99.99,,,-99.99,,2013-04-02 04:23:00,
2013-04-02 00:33:00,28.0,16.0,29.87,WNW,290,9.0,-999.0,58,-99.99,,,-99.99,,2013-04-02 04:33:00,
2013-04-02 00:43:00,30.0,16.0,29.87,WNW,290,9.0,-999.0,54,-99.99,,,-99.99,,2013-04-02 04:43:00,
2013-04-02 00:53:00,30.0,16.0,29.87,West,280,10.0,17.0,54,-99.99,,,-99.99,,2013-04-02 04:53:00,
2013-04-02 01:02:00,30.0,16.0,29.87,West,280,10.0,17.0,54,-99.99,,,-99.99,,2013-04-02 05:02:00,
2013-04-02 01:12:00,30.0,16.0,29.87,West,270,9.0,-999.0,54,-99.99,,,-99.99,,2013-04-02 05:12:00,
2013-04-02 01:22:00,30.0,18.0,29.87,WNW,290,9.0,-999.0,59,-99.99,,,-99.99,,2013-04-02 05:22:00,
2013-04-02 01:32:00,30.0,18.0,29.87,WNW,300,10.0,-999.0,59,-99.99,,,-99.99,,2013-04-02 05:32:00,
2013-04-02 01:42:00,30.0,18.0,29.87,WNW,300,9.0,16.0,59,-99.99,,,-99.99,,2013-04-02 05:42:00,
2013-04-02 01:52:00,30.0,18.0,29.87,NNW,330,3.0,-999.0,59,-99.99,,,-99.99,,2013-04-02 05:52:00,
2013-04-02 02:02:00,30.0,18.0,29.87,NNW,330,3.0,-999.0,59,-99.99,,,-99.99,,2013-04-02 06:02:00,
2013-04-02 02:12:00,30.0,19.0,29.88,WNW,290,10.0,16.0,63,-99.99,,,-99.99,,2013-04-02 06:12:00,
2013-04-02 02:22:00,28.0,23.0,29.88,West,280,10.0,-999.0,79,-99.99,,,-99.99,,2013-04-02 06:22:00,
2013-04-02 02:32:00,28.0,23.0,29.87,West,280,8.0,-999.0,79,-99.99,,,-99.99,,2013-04-02 06:32:00,
2013-04-02 02:42:00,28.0,23.0,29.87,WNW,290,6.0,-999.0,79,-99.99,,,-99.99,,2013-04-02 06:42:00,
2013-04-02 02:52:00,28.0,23.0,29.87,NW,320,3.0,-999.0,79,-99.99,,,-99.99,,2013-04-02 06:52:00,
2013-04-02 03:02:00,28.0,23.0,29.87,NW,320,3.0,-999.0,79,-99.99,,,-99.99,,2013-04-02 07:02:00,
2013-04-02 03:12:00,28.0,21.0,29.87,West,280,6.0,-999.0,74,-99.99,,,-99.99,,2013-04-02 07:12:00,
2013-04-02 03:22:00,28.0,23.0,29.87,West,260,5.0,-999.0,79,-99.99,,,-99.99,,2013-04-02 07:22:00,
2013-04-02 03:32:00,27.0,23.0,29.86,NW,320,3.0,-999.0,86,-99.99,,,-99.99,,2013-04-02 07:32:00,
2013-04-02 03:42:00,28.0,23.0,29.86,WNW,300,6.0,-999.0,79,-99.99,,,-99.99,,2013-04-02 07:42:00,
2013-04-02 03:52:00,28.0,21.0,29.86,West,280,6.0,-999.0,74,-99.99,,,-99.99,,2013-04-02 07:52:00,
2013-04-02 04:02:00,28.0,21.0,29.86,West,280,6.0,-999.0,74,-99.99,,,-99.99,,2013-04-02 08:02:00,
2013-04-02 04:13:00,28.0,23.0,29.86,NNW,340,6.0,-999.0,79,-99.99,,,-99.99,,2013-04-02 08:13:00,
2013-04-02 04:22:00,27.0,25.0,29.87,North,10,7.0,-999.0,92,-99.99,,,-99.99,,2013-04-02 08:22:00,
2013-04-02 04:32:00,27.0,25.0,29.87,North,0,0.0,-999.0,92,-99.99,,,-99.99,,2013-04-02 08:32:00,
2013-04-02 04:42:00,27.0,25.0,29.87,WNW,290,7.0,-999.0,92,-99.99,,,-99.99,,2013-04-02 08:42:00,
2013-04-02 04:52:00,27.0,25.0,29.87,West,280,8.0,-999.0,92,-99.99,,,-99.99,,2013-04-02 08:52:00,
2013-04-02 05:02:00,27.0,25.0,29.87,West,280,8.0,-999.0,92,-99.99,,,-99.99,,2013-04-02 09:02:00,
2013-04-02 05:12:00,27.0,23.0,29.87,West,280,7.0,-999.0,86,-99.99,,,-99.99,,2013-04-02 09:12:00,
2013-04-02 05:22:00,27.0,21.0,29.87,West,280,7.0,-999.0,79,-99.99,,,-99.99,,2013-04-02 09:22:00,
2013-04-02 05:32:00,27.0,23.0,29.88,WNW,300,6.0,-999.0,86,-99.99,,,-99.99,,2013-04-02 09:32:00,
2013-04-02 05:43:00,27.0,23.0,29.88,WNW,290,5.0,-999.0,86,-99.99,,,-99.99,,2013-04-02 09:43:00,
2013-04-02 05:52:00,27.0,23.0,29.88,West,270,5.0,-999.0,86,-99.99,,,-99.99,,2013-04-02 09:52:00,
2013-04-02 06:03:00,27.0,23.0,29.88,West,270,5.0,-999.0,86,-99.99,,,-99.99,,2013-04-02 10:03:00,
2013-04-02 06:13:00,27.0,23.0,29.88,West,260,3.0,-999.0,86,-99.99,,,-99.99,,2013-04-02 10:13:00,
2013-04-02 06:23:00,27.0,23.0,29.89,NW,310,3.0,-999.0,86,-99.99,,,-99.99,,2013-04-02 10:23:00,
2013-04-02 06:33:00,27.0,23.0,29.89,WNW,290,6.0,-999.0,86,-99.99,,,-99.99,,2013-04-02 10:33:00,
2013-04-02 06:42:00,27.0,21.0,29.89,WNW,300,5.0,-999.0,79,-99.99,,,-99.99,,2013-04-02 10:42:00,
2013-04-02 06:52:00,27.0,21.0,29.89,WNW,290,5.0,-999.0,79,-99.99,,,-99.99,,2013-04-02 10:52:00,
2013-04-02 07:02:00,27.0,21.0,29.89,WNW,290,5.0,-999.0,79,-99.99,,,-99.99,,2013-04-02 11:02:00,
2013-04-02 07:12:00,27.0,21.0,29.90,West,270,7.0,-999.0,79,-99.99,,,-99.99,,2013-04-02 11:12:00,
2013-04-02 07:22:00,27.0,21.0,29.90,WNW,290,9.0,-999.0,79,-99.99,,,-99.99,,2013-04-02 11:22:00,
2013-04-02 07:33:00,27.0,21.0,29.91,West,280,7.0,-999.0,79,-99.99,,,-99.99,,2013-04-02 11:33:00,
2013-04-02 07:43:00,27.0,21.0,29.91,NW,310,5.0,-999.0,79,-99.99,,,-99.99,,2013-04-02 11:43:00,
2013-04-02 07:52:00,25.0,21.0,29.91,WSW,250,7.0,-999.0,85,-99.99,,,-99.99,,2013-04-02 11:52:00,
2013-04-02 08:02:00,25.0,21.0,29.91,WSW,250,7.0,-999.0,85,-99.99,,,-99.99,,2013-04-02 12:02:00,
2013-04-02 08:12:00,27.0,21.0,29.91,West,270,6.0,-999.0,79,-99.99,,,-99.99,,2013-04-02 12:12:00,
2013-04-02 08:23:00,28.0,21.0,29.92,WNW,290,9.0,-999.0,74,-99.99,,,-99.99,,2013-04-02 12:23:00,
2013-04-02 08:32:00,28.0,19.0,29.92,West,260,8.0,-999.0,68,-99.99,,,-99.99,,2013-04-02 12:32:00,
2013-04-02 08:42:00,28.0,21.0,29.92,West,270,15.0,21.0,74,-99.99,,,-99.99,,2013-04-02 12:42:00,
2013-04-02 08:52:00,27.0,23.0,29.92,WNW,290,13.0,-999.0,86,-99.99,,,-99.99,,2013-04-02 12:52:00,
2013-04-02 09:02:00,27.0,23.0,29.92,WNW,290,13.0,-999.0,86,-99.99,,,-99.99,,2013-04-02 13:02:00,
2013-04-02 09:12:00,28.0,21.0,29.92,West,280,14.0,18.0,74,-99.99,,,-99.99,,2013-04-02 13:12:00,
2013-04-02 09:22:00,28.0,19.0,29.92,West,270,13.0,21.0,68,-99.99,,,-99.99,,2013-04-02 13:22:00,
2013-04-02 09:33:00,28.0,19.0,29.92,West,270,12.0,22.0,68,-99.99,,,-99.99,,2013-04-02 13:33:00,
2013-04-02 09:42:00,28.0,19.0,29.92,West,280,14.0,22.0,68,-99.99,,,-99.99,,2013-04-02 13:42:00,
2013-04-02 09:52:00,30.0,19.0,29.93,West,280,14.0,17.0,63,-99.99,,,-99.99,,2013-04-02 13:52:00,
2013-04-02 10:02:00,30.0,19.0,29.93,West,280,14.0,17.0,63,-99.99,,,-99.99,,2013-04-02 14:02:00,
2013-04-02 10:12:00,30.0,18.0,29.93,WNW,300,13.0,27.0,59,-99.99,,,-99.99,,2013-04-02 14:12:00,
2013-04-02 10:23:00,30.0,18.0,29.93,WNW,290,17.0,29.0,59,-99.99,,,-99.99,,2013-04-02 14:23:00,
2013-04-02 10:32:00,30.0,18.0,29.93,West,280,16.0,27.0,59,-99.99,,,-99.99,,2013-04-02 14:32:00,
2013-04-02 10:42:00,30.0,18.0,29.93,West,280,17.0,29.0,59,-99.99,,,-99.99,,2013-04-02 14:42:00,
2013-04-02 10:52:00,32.0,18.0,29.92,WNW,290,17.0,24.0,54,-99.99,,,-99.99,,2013-04-02 14:52:00,
2013-04-02 11:02:00,32.0,18.0,29.92,WNW,290,17.0,24.0,54,-99.99,,,-99.99,,2013-04-02 15:02:00,
2013-04-02 11:11:00,30.0,16.0,29.92,West,270,22.0,28.0,54,-99.99,,,-99.99,,2013-04-02 15:11:00,
2013-04-02 11:22:00,32.0,16.0,29.92,West,280,15.0,39.0,50,-99.99,,,-99.99,,2013-04-02 15:22:00,
2013-04-02 11:33:00,34.0,18.0,29.92,West,280,23.0,32.0,51,-99.99,,,-99.99,,2013-04-02 15:33:00,
2013-04-02 11:43:00,32.0,16.0,29.92,West,270,21.0,32.0,50,-99.99,,,-99.99,,2013-04-02 15:43:00,
2013-04-02 11:55:00,34.0,16.0,29.91,WNW,300,20.0,32.0,47,-99.99,,,-99.99,,2013-04-02 15:55:00,
2013-04-02 12:04:00,34.0,16.0,29.91,WNW,300,20.0,32.0,47,-99.99,,,-99.99,,2013-04-02 16:04:00,
2013-04-02 12:13:00,34.0,16.0,29.91,WNW,290,14.0,32.0,47,-99.99,,,-99.99,,2013-04-02 16:13:00,
2013-04-02 12:24:00,32.0,16.0,29.91,West,270,24.0,38.0,50,-99.99,,,-99.99,,2013-04-02 16:24:00,
2013-04-02 12:36:00,34.0,16.0,29.91,West,280,23.0,37.0,47,-99.99,,,-99.99,,2013-04-02 16:36:00,
2013-04-02 12:44:00,34.0,16.0,29.91,West,280,22.0,38.0,47,-99.99,,,-99.99,,2013-04-02 16:44:00,
2013-04-02 12:53:00,34.0,14.0,29.91,West,280,18.0,38.0,43,-99.99,,,-99.99,,2013-04-02 16:53:00,
2013-04-02 13:05:00,34.0,14.0,29.91,West,280,18.0,38.0,43,-99.99,,,-99.99,,2013-04-02 17:05:00,
2013-04-02 13:13:00,34.0,14.0,29.90,WNW,290,27.0,36.0,43,-99.99,,,-99.99,,2013-04-02 17:13:00,
2013-04-02 13:25:00,36.0,16.0,29.91,West,270,22.0,36.0,43,-99.99,,,-99.99,,2013-04-02 17:25:00,
2013-04-02 13:34:00,36.0,16.0,29.91,WNW,290,28.0,43.0,43,-99.99,,,-99.99,,2013-04-02 17:34:00,
2013-04-02 13:43:00,32.0,18.0,29.91,WNW,290,22.0,43.0,54,-99.99,,,-99.99,,2013-04-02 17:43:00,
2013-04-02 13:54:00,36.0,19.0,29.91,WNW,300,21.0,30.0,51,-99.99,,,-99.99,,2013-04-02 17:54:00,
2013-04-02 14:04:00,36.0,19.0,29.91,WNW,300,21.0,30.0,51,-99.99,,,-99.99,,2013-04-02 18:04:00,
2013-04-02 14:12:00,34.0,18.0,29.91,West,280,24.0,36.0,51,-99.99,,,-99.99,,2013-04-02 18:12:00,
2013-04-02 14:23:00,36.0,16.0,29.89,West,280,25.0,38.0,43,-99.99,,,-99.99,,2013-04-02 18:23:00,
2013-04-02 14:34:00,34.0,14.0,29.90,WNW,290,29.0,38.0,43,-99.99,,,-99.99,,2013-04-02 18:34:00,
2013-04-02 14:43:00,36.0,16.0,29.91,WNW,300,23.0,38.0,43,-99.99,,,-99.99,,2013-04-02 18:43:00,
2013-04-02 14:54:00,34.0,21.0,29.91,WNW,300,20.0,28.0,59,-99.99,,,-99.99,,2013-04-02 18:54:00,
2013-04-02 15:03:00,34.0,21.0,29.91,WNW,300,20.0,28.0,59,-99.99,,,-99.99,,2013-04-02 19:03:00,
2013-04-02 15:11:00,34.0,18.0,29.91,WNW,290,23.0,35.0,51,-99.99,,,-99.99,,2013-04-02 19:11:00,
2013-04-02 15:31:00,36.0,14.0,29.89,West,280,28.0,41.0,40,-99.99,,,-99.99,,2013-04-02 19:31:00,
2013-04-02 15:41:00,34.0,18.0,29.91,WNW,290,21.0,41.0,51,-99.99,,,-99.99,,2013-04-02 19:41:00,
2013-04-02 15:52:00,34.0,16.0,29.90,WNW,290,20.0,36.0,47,-99.99,,,-99.99,,2013-04-02 19:52:00,
2013-04-02 16:03:00,34.0,16.0,29.90,WNW,290,20.0,36.0,47,-99.99,,,-99.99,,2013-04-02 20:03:00,
2013-04-02 16:11:00,36.0,14.0,29.90,West,280,20.0,36.0,40,-99.99,,,-99.99,,2013-04-02 20:11:00,
2013-04-02 16:21:00,36.0,14.0,29.90,WNW,300,24.0,32.0,40,-99.99,,,-99.99,,2013-04-02 20:21:00,
2013-04-02 17:04:00,34.0,18.0,29.91,WNW,290,13.0,29.0,51,-99.99,,,-99.99,,2013-04-02 21:04:00,
2013-04-02 17:13:00,34.0,16.0,29.91,West,260,27.0,39.0,47,-99.99,,,-99.99,,2013-04-02 21:13:00,
2013-04-02 17:21:00,34.0,16.0,29.92,WNW,300,24.0,38.0,47,-99.99,,,-99.99,,2013-04-02 21:21:00,
2013-04-02 17:32:00,34.0,16.0,29.92,WNW,290,25.0,38.0,47,-99.99,,,-99.99,,2013-04-02 21:32:00,
2013-04-02 17:41:00,34.0,16.0,29.92,WNW,290,25.0,38.0,47,-99.99,,,-99.99,,2013-04-02 21:41:00,
2013-04-02 17:52:00,34.0,16.0,29.93,WNW,290,16.0,24.0,47,-99.99,,,-99.99,,2013-04-02 21:52:00,
2013-04-02 18:04:00,34.0,16.0,29.93,WNW,290,16.0,24.0,47,-99.99,,,-99.99,,2013-04-02 22:04:00,
2013-04-02 18:14:00,34.0,18.0,29.94,WNW,290,20.0,23.0,51,-99.99,,,-99.99,,2013-04-02 22:14:00,
2013-04-02 18:33:00,34.0,18.0,29.94,West,280,13.0,21.0,51,-99.99,,,-99.99,,2013-04-02 22:33:00,
2013-04-02 18:43:00,34.0,18.0,29.94,West,280,12.0,22.0,51,-99.99,,,-99.99,,2013-04-02 22:43:00,
2013-04-02 18:53:00,34.0,16.0,29.94,West,280,15.0,21.0,47,-99.99,,,-99.99,,2013-04-02 22:53:00,
2013-04-02 19:03:00,34.0,16.0,29.94,West,280,15.0,21.0,47,-99.99,,,-99.99,,2013-04-02 23:03:00,
2013-04-02 19:13:00,34.0,16.0,29.94,WNW,290,13.0,21.0,47,-99.99,,,-99.99,,2013-04-02 23:13:00,
2013-04-02 19:23:00,34.0,16.0,29.94,West,270,20.0,33.0,47,-99.99,,,-99.99,,2013-04-02 23:23:00,
2013-04-02 19:35:00,32.0,16.0,29.95,West,270,21.0,30.0,50,-99.99,,,-99.99,,2013-04-02 23:35:00,
2013-04-02 19:43:00,32.0,16.0,29.95,West,270,17.0,28.0,50,-99.99,,,-99.99,,2013-04-02 23:43:00,
2013-04-02 19:52:00,32.0,18.0,29.96,West,280,17.0,25.0,54,-99.99,,,-99.99,,2013-04-02 23:52:00,
2013-04-02 20:04:00,32.0,18.0,29.96,West,280,17.0,25.0,54,-99.99,,,-99.99,,2013-04-03 00:04:00,
2013-04-02 20:43:00,32.0,19.0,29.98,West,270,15.0,24.0,59,-99.99,,,-99.99,,2013-04-03 00:43:00,
2013-04-02 20:52:00,30.0,19.0,29.99,West,270,13.0,23.0,63,-99.99,,,-99.99,,2013-04-03 00:52:00,
2013-04-02 21:04:00,30.0,19.0,29.99,West,270,13.0,23.0,63,-99.99,,,-99.99,,2013-04-03 01:04:00,
2013-04-02 21:12:00,30.0,21.0,29.99,West,260,15.0,22.0,68,-99.99,,,-99.99,,2013-04-03 01:12:00,
2013-04-02 21:23:00,32.0,21.0,29.99,West,270,14.0,25.0,63,-99.99,,,-99.99,,2013-04-03 01:23:00,
2013-04-02 21:33:00,32.0,19.0,30.00,West,280,12.0,-999.0,59,-99.99,,,-99.99,,2013-04-03 01:33:00,
2013-04-02 21:42:00,32.0,19.0,29.99,West,280,18.0,25.0,59,-99.99,,,-99.99,,2013-04-03 01:42:00,
2013-04-02 21:53:00,32.0,19.0,30.00,WNW,300,10.0,22.0,59,-99.99,,,-99.99,,2013-04-03 01:53:00,
2013-04-02 22:04:00,32.0,19.0,30.00,WNW,300,10.0,22.0,59,-99.99,,,-99.99,,2013-04-03 02:04:00,
2013-04-02 22:21:00,28.0,25.0,30.01,West,280,9.0,18.0,86,-99.99,,,-99.99,,2013-04-03 02:21:00,
2013-04-02 22:31:00,28.0,25.0,30.01,WNW,300,10.0,18.0,86,-99.99,,,-99.99,,2013-04-03 02:31:00,
2013-04-02 22:41:00,30.0,25.0,30.01,WNW,290,7.0,10.0,80,-99.99,,,-99.99,,2013-04-03 02:41:00,
2013-04-02 22:52:00,30.0,23.0,30.00,WNW,290,12.0,-999.0,74,-99.99,,,-99.99,,2013-04-03 02:52:00,
2013-04-02 23:05:00,30.0,23.0,30.00,WNW,290,12.0,-999.0,74,-99.99,,,-99.99,,2013-04-03 03:05:00,
2013-04-02 23:14:00,30.0,25.0,30.00,WNW,290,9.0,16.0,80,-99.99,,,-99.99,,2013-04-03 03:14:00,
2013-04-02 23:23:00,30.0,23.0,30.00,WNW,300,13.0,20.0,74,-99.99,,,-99.99,,2013-04-03 03:23:00,
2013-04-02 23:37:00,30.0,23.0,30.00,WNW,300,12.0,-999.0,74,-99.99,,,-99.99,,2013-04-03 03:37:00,
2013-04-02 23:44:00,30.0,25.0,30.00,WNW,300,14.0,17.0,80,-99.99,,,-99.99,,2013-04-03 03:44:00,
2013-04-02 23:53:00,28.0,25.0,30.00,WNW,290,9.0,-999.0,86,-99.99,,,-99.99,,2013-04-03 03:53:00,